Time;durP1;ratioP1;P1;durP2;ratioP2;P2;SDS_P1;SDS_P2;PMS_P1;PMS_P2;Temp;Humidity;BMP_temperature;BMP_pressure;BME280_temperature;BME280_humidity;BME280_pressure;Samples;Min_cycle;Max_cycle;Signal;HPM_P1;HPM_P2
2021/06/01 00:00:03;;;;;;;1.63;1.53;;;;;;;12.98;51.52;96923.56;5111626;28;20176;-67
2021/06/01 00:02:29;;;;;;;1.93;1.80;;;;;;;12.99;51.35;96922.50;5099704;28;20648;-67
2021/06/01 00:04:55;;;;;;;2.10;1.70;;;;;;;12.91;51.49;96924.50;5110937;28;20206;-67
2021/06/01 00:07:20;;;;;;;1.80;1.70;;;;;;;12.94;51.49;96925.84;5098073;28;20240;-67
2021/06/01 00:09:46;;;;;;;1.80;1.70;;;;;;;12.89;51.43;96920.50;5099696;28;20172;-68
2021/06/01 00:12:11;;;;;;;1.80;1.70;;;;;;;12.88;51.63;96919.69;5103468;28;20610;-68
2021/06/01 00:14:37;;;;;;;1.60;1.50;;;;;;;12.90;51.47;96916.84;5099055;28;20517;-67
2021/06/01 00:17:03;;;;;;;1.87;1.77;;;;;;;12.91;51.50;96913.97;5100304;28;20196;-67
2021/06/01 00:19:28;;;;;;;1.50;1.40;;;;;;;12.86;51.53;96916.53;5106370;28;20172;-67
2021/06/01 00:21:55;;;;;;;1.83;1.73;;;;;;;12.90;51.43;96924.72;5106496;28;20176;-69
2021/06/01 00:24:20;;;;;;;1.53;1.43;;;;;;;12.79;51.86;96915.88;5096816;28;20178;-68
2021/06/01 00:26:48;;;;;;;1.70;1.60;;;;;;;12.75;51.92;96917.38;5103280;28;20291;-67
2021/06/01 00:29:13;;;;;;;1.97;1.70;;;;;;;12.88;51.78;96911.81;5104003;28;20206;-67
2021/06/01 00:31:39;;;;;;;1.90;1.80;;;;;;;12.82;51.87;96912.75;5095802;28;20772;-67
2021/06/01 00:34:06;;;;;;;2.00;1.80;;;;;;;12.80;51.98;96911.41;5107494;28;20180;-67
2021/06/01 00:36:32;;;;;;;1.47;1.40;;;;;;;12.79;51.79;96917.69;5103816;28;20250;-67
2021/06/01 00:38:57;;;;;;;1.70;1.60;;;;;;;12.71;52.18;96908.34;5101496;28;20184;-67
2021/06/01 00:41:23;;;;;;;1.70;1.60;;;;;;;12.63;52.40;96902.69;5079890;28;20188;-67
2021/06/01 01:32:17;;;;;;;2.20;1.63;;;;;;;12.25;54.17;96893.59;5308751;22;20301;-65
2021/06/01 01:34:44;;;;;;;3.27;1.77;;;;;;;12.15;54.61;96892.63;5033611;28;20193;-66
2021/06/01 01:37:10;;;;;;;3.43;1.73;;;;;;;12.06;54.73;96895.59;5033502;28;20183;-64
2021/06/01 01:39:42;;;;;;;2.20;1.90;;;;;;;12.12;54.48;96901.75;5033998;28;20179;-64
2021/06/01 01:42:12;;;;;;;2.33;1.70;;;;;;;12.04;54.73;96899.47;5033724;28;20181;-65
2021/06/01 01:44:47;;;;;;;1.70;1.60;;;;;;;12.01;54.95;96889.44;5034271;28;20584;-65
2021/06/01 01:50:05;;;;;;;6.03;1.70;;;;;;;12.04;54.53;96896.84;4995308;28;20644;-68
2021/06/01 01:52:34;;;;;;;2.73;1.90;;;;;;;12.04;54.77;96896.84;5033879;28;20194;-65
2021/06/01 01:55:00;;;;;;;1.70;1.60;;;;;;;12.00;54.92;96893.91;5032519;28;20637;-65
2021/06/01 01:57:26;;;;;;;1.77;1.67;;;;;;;11.93;55.13;96892.41;5033915;28;20218;-65
2021/06/01 01:59:51;;;;;;;2.03;1.93;;;;;;;11.96;54.73;96891.97;5033634;28;20198;-70
2021/06/01 02:02:17;;;;;;;1.80;1.70;;;;;;;11.94;54.88;96894.03;5032841;28;20187;-65
2021/06/01 02:04:44;;;;;;;1.80;1.70;;;;;;;11.91;55.31;96894.50;5015800;28;20183;-65
2021/06/01 02:07:09;;;;;;;1.70;1.60;;;;;;;11.93;55.00;96897.66;5014932;28;20206;-65
2021/06/01 02:09:35;;;;;;;2.00;1.90;;;;;;;11.89;55.43;96899.16;5033437;28;20550;-65
2021/06/01 02:12:01;;;;;;;1.97;1.80;;;;;;;11.85;55.87;96911.97;5031969;28;20658;-66
2021/06/01 02:14:26;;;;;;;2.00;1.90;;;;;;;11.77;55.32;96901.81;5025877;28;20274;-65
2021/06/01 02:16:53;;;;;;;1.73;1.63;;;;;;;11.77;55.87;96898.38;5033226;28;20660;-71
2021/06/01 02:19:20;;;;;;;2.13;1.60;;;;;;;11.77;55.78;96904.44;5033223;28;20191;-65
2021/06/01 02:22:17;;;;;;;1.97;1.77;;;;;;;11.75;55.52;96898.63;5015850;28;20531;-65
2021/06/01 02:24:51;;;;;;;1.80;1.70;;;;;;;11.81;54.98;96902.16;5019649;28;20182;-65
2021/06/01 02:27:34;;;;;;;1.60;1.50;;;;;;;11.76;55.33;96902.06;5032268;28;20194;-65
2021/06/01 02:30:03;;;;;;;1.83;1.73;;;;;;;11.80;55.12;96897.94;5032415;28;20179;-64
2021/06/01 02:32:40;;;;;;;1.90;1.70;;;;;;;11.72;55.33;96887.75;5032269;28;20230;-64
2021/06/01 02:35:15;;;;;;;1.63;1.53;;;;;;;11.73;55.23;96890.19;5031765;28;20183;-65
2021/06/01 02:37:45;;;;;;;2.80;1.90;;;;;;;11.71;55.12;96891.41;5033075;28;20174;-65
2021/06/01 02:40:13;;;;;;;2.10;2.00;;;;;;;11.71;55.24;96896.66;5031900;28;20277;-64
2021/06/01 02:42:40;;;;;;;2.40;1.73;;;;;;;11.67;55.76;96894.50;5033158;28;20191;-65
2021/06/01 02:45:08;;;;;;;1.80;1.70;;;;;;;11.57;55.84;96896.13;5013886;28;20182;-65
2021/06/01 02:47:34;;;;;;;1.97;1.87;;;;;;;11.62;55.54;96896.22;5032739;28;20248;-65
2021/06/01 02:50:03;;;;;;;1.90;1.80;;;;;;;11.57;56.19;96890.88;5031724;28;20221;-65
2021/06/01 02:52:30;;;;;;;1.90;1.80;;;;;;;11.60;55.79;96893.00;5032905;28;20243;-65
2021/06/01 02:54:55;;;;;;;1.63;1.50;;;;;;;11.54;56.23;96883.44;5032339;28;20186;-71
2021/06/01 02:57:21;;;;;;;1.67;1.57;;;;;;;11.45;56.24;96892.69;5032511;28;20193;-65
2021/06/01 02:59:47;;;;;;;2.30;1.70;;;;;;;11.51;56.37;96894.41;5014905;28;20187;-65
2021/06/01 03:02:12;;;;;;;1.93;1.70;;;;;;;11.37;56.35;96893.06;5031433;28;20205;-65
2021/06/01 03:04:51;;;;;;;2.17;1.70;;;;;;;11.44;56.33;96885.84;5032406;28;20597;-65
2021/06/01 03:07:17;;;;;;;1.73;1.60;;;;;;;11.36;56.90;96891.44;5031520;28;20260;-65
2021/06/01 03:09:42;;;;;;;5.90;1.90;;;;;;;11.35;57.04;96884.59;5032664;28;20601;-65
2021/06/01 03:12:09;;;;;;;2.20;1.77;;;;;;;11.25;57.68;96885.19;5031145;28;20261;-65
2021/06/01 03:14:35;;;;;;;2.30;2.10;;;;;;;11.16;57.95;96887.31;5032107;28;20224;-65
2021/06/01 03:17:00;;;;;;;1.93;1.83;;;;;;;11.19;58.08;96879.00;5031369;28;20214;-65
2021/06/01 03:19:25;;;;;;;2.00;1.90;;;;;;;11.18;58.01;96879.25;5032480;28;20179;-65
2021/06/01 03:21:51;;;;;;;2.00;1.90;;;;;;;11.19;57.94;96876.41;5032267;28;20193;-65
2021/06/01 03:24:16;;;;;;;2.73;2.13;;;;;;;11.03;58.82;96871.03;5031310;28;20179;-65
2021/06/01 03:26:41;;;;;;;2.30;1.83;;;;;;;11.13;58.06;96874.69;5013783;28;20341;-65
2021/06/01 03:29:07;;;;;;;2.23;2.10;;;;;;;11.16;58.61;96873.41;5030008;28;20286;-66
2021/06/01 03:31:32;;;;;;;2.10;1.90;;;;;;;10.96;58.83;96876.38;5031772;28;20555;-65
2021/06/01 03:33:58;;;;;;;2.87;2.13;;;;;;;11.10;58.25;96880.34;5031072;28;20301;-70
2021/06/01 03:36:24;;;;;;;2.20;2.10;;;;;;;11.25;58.83;96883.34;5031384;28;20180;-64
2021/06/01 03:38:51;;;;;;;2.30;2.10;;;;;;;11.40;58.48;96882.09;5014101;28;20199;-64
2021/06/01 03:41:17;;;;;;;1.97;1.87;;;;;;;11.58;57.25;96881.97;5030924;28;20175;-65
2021/06/01 03:43:42;;;;;;;2.53;1.83;;;;;;;11.62;57.01;96878.66;5031966;28;20190;-65
2021/06/01 03:46:08;;;;;;;2.23;1.90;;;;;;;11.77;56.80;96875.56;5030848;28;20201;-65
2021/06/01 03:48:33;;;;;;;1.70;1.60;;;;;;;12.00;56.31;96882.59;5014160;28;20178;-65
2021/06/01 03:50:59;;;;;;;2.07;1.97;;;;;;;12.21;55.42;96881.13;5031282;28;20678;-67
2021/06/01 03:53:28;;;;;;;1.80;1.70;;;;;;;12.28;54.94;96879.97;5031898;28;20206;-65
2021/06/01 03:55:54;;;;;;;1.90;1.77;;;;;;;12.45;54.71;96883.44;5031555;28;20190;-65
2021/06/01 03:58:20;;;;;;;2.30;1.80;;;;;;;12.73;53.97;96882.63;5030648;28;20256;-65
2021/06/01 04:00:46;;;;;;;2.20;1.83;;;;;;;12.82;53.69;96883.81;5031753;28;20190;-64
2021/06/01 04:03:11;;;;;;;2.27;1.80;;;;;;;12.72;53.49;96886.28;5030635;28;20519;-65
2021/06/01 04:05:37;;;;;;;2.20;1.73;;;;;;;12.66;53.67;96878.53;5031304;28;20210;-64
2021/06/01 04:08:05;;;;;;;2.00;1.80;;;;;;;13.15;52.57;96885.69;5030570;28;20190;-65
2021/06/01 04:10:31;;;;;;;1.90;1.70;;;;;;;13.32;52.00;96878.59;5031544;28;20218;-65
2021/06/01 04:12:56;;;;;;;2.80;1.70;;;;;;;13.54;52.00;96883.13;5030768;28;20706;-69
2021/06/01 04:15:22;;;;;;;1.97;1.70;;;;;;;13.67;50.95;96880.91;5031216;28;20273;-64
2021/06/01 04:17:47;;;;;;;2.83;2.10;;;;;;;13.48;51.35;96884.09;5031339;28;20662;-64
2021/06/01 04:20:13;;;;;;;1.80;1.70;;;;;;;13.79;50.90;96887.91;5030491;28;20186;-64
2021/06/01 04:22:38;;;;;;;2.23;2.13;;;;;;;13.88;50.42;96889.06;5031491;28;20198;-64
2021/06/01 04:25:06;;;;;;;1.70;1.60;;;;;;;14.02;50.15;96885.03;5030826;28;20527;-68
2021/06/01 04:27:32;;;;;;;2.23;1.70;;;;;;;13.85;50.40;96882.47;5031087;28;20205;-64
2021/06/01 04:29:57;;;;;;;1.87;1.60;;;;;;;14.12;49.97;96890.44;5030860;28;20265;-70
2021/06/01 04:32:23;;;;;;;2.60;2.00;;;;;;;14.41;49.67;96883.16;5030421;28;20286;-64
2021/06/01 04:34:48;;;;;;;1.87;1.77;;;;;;;14.26;49.63;96881.13;5030687;28;20194;-64
2021/06/01 04:37:14;;;;;;;2.07;1.97;;;;;;;14.39;49.58;96880.75;5033551;28;20786;-68
2021/06/01 04:39:39;;;;;;;1.60;1.50;;;;;;;14.46;49.18;96884.00;5035416;28;20197;-64
2021/06/01 04:42:04;;;;;;;1.90;1.70;;;;;;;14.37;49.31;96884.69;5034754;28;20190;-64
2021/06/01 04:44:30;;;;;;;1.87;1.60;;;;;;;14.32;49.73;96893.28;5034868;28;20543;-65
2021/06/01 04:46:55;;;;;;;1.83;1.73;;;;;;;14.63;49.02;96883.09;5034827;28;20214;-70
2021/06/01 04:49:21;;;;;;;1.77;1.67;;;;;;;14.76;48.87;96880.84;5034490;28;20198;-64
2021/06/01 04:51:46;;;;;;;1.70;1.60;;;;;;;14.44;49.15;96875.53;5035229;28;20648;-64
2021/06/01 04:54:11;;;;;;;1.63;1.53;;;;;;;14.51;49.21;96881.41;5034221;28;20182;-64
2021/06/01 04:56:37;;;;;;;2.10;1.80;;;;;;;14.42;49.23;96888.19;5035180;28;20179;-64
2021/06/01 04:59:03;;;;;;;1.67;1.53;;;;;;;14.41;49.58;96883.16;5034425;28;20190;-65
2021/06/01 05:01:28;;;;;;;2.00;1.90;;;;;;;14.36;49.59;96888.34;5035107;28;20221;-64
2021/06/01 05:03:53;;;;;;;2.20;2.00;;;;;;;14.35;49.46;96881.47;5034907;28;20197;-64
2021/06/01 05:06:20;;;;;;;2.33;2.13;;;;;;;14.55;49.50;96874.56;5033682;28;20341;-64
2021/06/01 05:08:46;;;;;;;2.17;2.00;;;;;;;14.49;49.69;96870.28;5034466;28;20531;-64
2021/06/01 05:11:11;;;;;;;1.80;1.70;;;;;;;14.68;49.14;96876.03;5033961;28;20193;-64
2021/06/01 05:13:37;;;;;;;2.23;1.80;;;;;;;14.53;49.26;96871.41;5034410;28;20198;-65
2021/06/01 05:16:02;;;;;;;2.47;2.10;;;;;;;14.71;49.39;96872.09;5033569;28;20232;-65
2021/06/01 05:18:28;;;;;;;2.60;1.80;;;;;;;14.90;49.29;96873.31;5034589;28;20182;-64
2021/06/01 05:20:53;;;;;;;2.00;1.90;;;;;;;14.96;48.74;96865.19;5034305;28;20183;-64
2021/06/01 05:23:19;;;;;;;1.80;1.70;;;;;;;15.07;48.17;96876.63;5033777;28;20379;-64
2021/06/01 05:25:44;;;;;;;2.00;1.90;;;;;;;15.04;48.48;96874.50;5034299;28;20566;-64
2021/06/01 05:28:11;;;;;;;2.13;1.90;;;;;;;15.15;48.37;96868.25;5033621;28;20240;-65
2021/06/01 05:30:46;;;;;;;1.93;1.83;;;;;;;15.46;47.92;96871.06;5034159;28;20281;-65
2021/06/01 05:33:25;;;;;;;2.07;1.90;;;;;;;15.61;47.54;96868.53;5032649;28;20229;-64
2021/06/01 05:35:54;;;;;;;1.70;1.60;;;;;;;15.83;47.38;96871.81;5034207;28;20182;-64
2021/06/01 05:38:27;;;;;;;1.80;1.70;;;;;;;15.98;46.66;96873.75;5015337;28;20179;-63
2021/06/01 05:40:54;;;;;;;2.23;1.80;;;;;;;15.75;47.31;96875.78;5033675;28;20237;-64
2021/06/01 05:43:20;;;;;;;3.80;2.03;;;;;;;15.97;46.78;96874.81;5032897;28;20309;-63
2021/06/01 05:45:45;;;;;;;1.73;1.63;;;;;;;15.73;47.16;96874.41;5033839;28;20256;-64
2021/06/01 05:48:12;;;;;;;1.60;1.50;;;;;;;15.47;48.10;96868.19;5031923;28;20170;-64
2021/06/01 05:50:38;;;;;;;2.10;2.00;;;;;;;15.58;47.14;96874.34;5033959;28;20197;-64
2021/06/01 05:53:05;;;;;;;2.43;2.23;;;;;;;15.89;46.98;96872.66;5032941;28;20182;-64
2021/06/01 05:55:31;;;;;;;1.90;1.75;;;;;;;15.98;46.22;96863.97;5033565;28;20179;-64
2021/06/01 05:57:57;;;;;;;1.90;1.80;;;;;;;15.97;45.96;96866.88;5033975;28;20261;-64
2021/06/01 06:00:23;;;;;;;2.00;1.80;;;;;;;16.25;45.93;96874.38;5032965;28;20270;-64
2021/06/01 06:02:49;;;;;;;1.80;1.70;;;;;;;15.74;46.92;96876.03;5034088;28;20191;-64
2021/06/01 06:05:15;;;;;;;2.65;1.65;;;;;;;15.99;47.07;96872.72;5032927;28;20240;-64
2021/06/01 06:07:40;;;;;;;2.90;1.83;;;;;;;15.96;47.39;96870.56;5033693;28;20210;-64
2021/06/01 06:10:07;;;;;;;2.00;1.90;;;;;;;15.89;46.43;96872.66;5014762;28;20550;-64
2021/06/01 06:12:34;;;;;;;3.65;1.92;;;;;;;15.89;46.92;96868.16;5033128;28;20210;-64
2021/06/01 06:14:59;;;;;;;1.67;1.58;;;;;;;15.74;46.45;96868.09;5033385;28;20186;-68
2021/06/01 06:17:35;;;;;;;1.77;1.67;;;;;;;15.75;46.56;96865.19;5033236;28;20186;-64
2021/06/01 06:20:04;;;;;;;2.08;1.85;;;;;;;16.05;46.32;96871.69;5033164;28;20178;-69
2021/06/01 06:22:30;;;;;;;3.60;1.80;;;;;;;16.08;45.51;96871.94;5018286;28;20194;-65
2021/06/01 06:24:55;;;;;;;1.70;1.60;;;;;;;16.36;45.49;96873.34;5032698;28;20678;-65
2021/06/01 06:27:21;;;;;;;2.20;1.60;;;;;;;16.31;45.37;96875.19;5031750;28;20260;-64
2021/06/01 06:29:46;;;;;;;1.75;1.65;;;;;;;16.50;45.14;96863.06;5032466;28;20190;-65
2021/06/01 06:32:12;;;;;;;2.35;1.85;;;;;;;16.33;45.09;96868.56;5031106;28;20285;-65
2021/06/01 06:34:37;;;;;;;1.95;1.85;;;;;;;16.51;45.17;96868.09;5031479;28;20651;-64
2021/06/01 06:37:04;;;;;;;1.80;1.70;;;;;;;16.63;45.37;96867.88;5030367;28;20545;-69
2021/06/01 06:39:30;;;;;;;2.08;1.98;;;;;;;16.55;44.97;96868.38;5025540;28;20341;-65
2021/06/01 06:41:56;;;;;;;1.83;1.73;;;;;;;16.43;44.97;96871.25;5031651;28;20179;-65
2021/06/01 06:44:22;;;;;;;1.80;1.70;;;;;;;16.58;45.81;96868.63;5032046;28;20214;-65
2021/06/01 06:47:03;;;;;;;2.20;2.00;;;;;;;16.21;45.77;96878.63;5031382;28;20277;-66
2021/06/01 06:49:29;;;;;;;2.92;2.08;;;;;;;16.37;45.64;96879.44;5027977;28;20178;-68
2021/06/01 06:51:54;;;;;;;2.17;1.98;;;;;;;16.63;45.07;96866.03;5030426;28;20549;-65
2021/06/01 06:54:19;;;;;;;1.98;1.73;;;;;;;16.72;44.46;96865.53;5030914;28;20197;-64
2021/06/01 06:56:45;;;;;;;1.83;1.73;;;;;;;16.80;45.30;96868.44;5032444;28;20640;-65
2021/06/01 06:59:10;;;;;;;2.10;2.00;;;;;;;16.63;45.16;96868.69;5030824;28;20191;-64
2021/06/01 07:01:37;;;;;;;1.90;1.80;;;;;;;16.87;44.39;96866.31;5013581;28;20191;-65
2021/06/01 07:04:02;;;;;;;3.20;2.90;;;;;;;16.80;44.60;96867.63;5031219;28;20217;-70
2021/06/01 07:06:28;;;;;;;1.70;1.60;;;;;;;16.92;43.81;96866.31;5024239;28;20272;-65
2021/06/01 07:08:53;;;;;;;1.80;1.70;;;;;;;16.95;44.24;96865.78;5031847;28;20221;-65
2021/06/01 07:11:19;;;;;;;2.17;1.90;;;;;;;16.92;43.72;96862.88;5030871;28;20261;-64
2021/06/01 07:13:44;;;;;;;2.83;2.05;;;;;;;16.73;44.71;96867.88;5031597;28;20255;-65
2021/06/01 07:16:11;;;;;;;2.00;1.90;;;;;;;16.92;43.98;96868.97;5031091;28;20662;-64
2021/06/01 07:18:39;;;;;;;3.10;2.10;;;;;;;17.06;44.36;96858.63;5032100;28;20205;-64
2021/06/01 07:21:06;;;;;;;1.60;1.50;;;;;;;17.08;44.29;96868.97;5013482;28;20191;-69
2021/06/01 07:23:33;;;;;;;1.80;1.70;;;;;;;17.29;44.03;96857.28;5016391;28;20189;-64
2021/06/01 07:25:59;;;;;;;2.65;2.25;;;;;;;17.46;43.10;96857.78;5031603;28;20198;-63
2021/06/01 07:28:24;;;;;;;2.78;1.70;;;;;;;17.51;44.05;96862.28;5031075;28;20187;-63
2021/06/01 07:30:50;;;;;;;4.00;2.22;;;;;;;17.17;43.64;96856.75;5031118;28;20206;-64
2021/06/01 07:33:16;;;;;;;2.92;1.88;;;;;;;17.48;42.91;96863.63;5008877;28;20240;-64
2021/06/01 07:35:41;;;;;;;2.10;1.90;;;;;;;17.71;43.03;96852.47;5011886;28;20191;-63
2021/06/01 07:38:10;;;;;;;1.63;1.52;;;;;;;17.83;42.90;96842.34;5005416;28;20195;-66
2021/06/01 07:40:35;;;;;;;1.88;1.70;;;;;;;17.68;42.23;96845.03;5011510;28;20212;-63
2021/06/01 07:43:00;;;;;;;2.03;1.73;;;;;;;17.77;42.71;96843.44;5010171;28;20637;-63
2021/06/01 07:45:27;;;;;;;2.10;1.73;;;;;;;18.15;42.86;96849.13;5010994;28;20246;-63
2021/06/01 07:47:52;;;;;;;1.90;1.80;;;;;;;18.20;42.81;96838.47;5011482;28;20664;-64
2021/06/01 07:50:18;;;;;;;3.20;1.60;;;;;;;18.11;41.44;96845.44;5011116;28;20179;-64
2021/06/01 07:52:43;;;;;;;1.63;1.52;;;;;;;17.81;42.31;96841.81;5010157;28;20183;-66
2021/06/01 07:55:10;;;;;;;1.92;1.83;;;;;;;17.60;41.57;96837.66;5010481;28;20632;-65
2021/06/01 07:57:35;;;;;;;2.47;1.45;;;;;;;17.85;40.76;96837.56;5011523;28;20199;-65
2021/06/01 08:00:01;;;;;;;1.67;1.58;;;;;;;17.99;40.96;96835.13;5011221;28;20258;-64
2021/06/01 08:02:26;;;;;;;2.13;1.90;;;;;;;18.25;41.51;96835.78;5010394;28;20686;-64
2021/06/01 08:04:52;;;;;;;1.73;1.63;;;;;;;18.39;41.02;96830.69;5010898;28;20194;-64
2021/06/01 08:07:20;;;;;;;2.17;1.80;;;;;;;18.34;40.41;96831.47;5010765;28;20282;-65
2021/06/01 08:09:45;;;;;;;1.63;1.52;;;;;;;18.47;40.59;96819.47;5010465;28;20264;-65
2021/06/01 08:12:10;;;;;;;1.65;1.60;;;;;;;18.08;40.35;96825.53;5010001;28;20284;-65
2021/06/01 08:14:36;;;;;;;1.75;1.65;;;;;;;17.48;40.92;96809.81;5011022;28;20191;-64
2021/06/01 08:17:02;;;;;;;2.00;1.80;;;;;;;17.73;40.92;96812.41;5011504;28;20215;-64
2021/06/01 08:19:31;;;;;;;2.05;1.77;;;;;;;17.70;40.68;96820.91;5011107;28;20191;-64
2021/06/01 08:22:01;;;;;;;2.20;2.00;;;;;;;17.90;41.56;96815.53;5011382;28;20242;-65
2021/06/01 08:24:27;;;;;;;1.77;1.63;;;;;;;18.14;40.24;96818.34;4995267;28;20176;-64
2021/06/01 08:26:52;;;;;;;1.67;1.58;;;;;;;18.25;39.07;96823.31;5011534;28;20252;-64
2021/06/01 08:29:18;;;;;;;1.80;1.67;;;;;;;18.05;37.50;96817.34;5009515;28;20643;-64
2021/06/01 08:31:44;;;;;;;3.47;1.60;;;;;;;18.16;37.62;96818.88;5011296;28;20190;-64
2021/06/01 08:34:10;;;;;;;3.70;1.65;;;;;;;18.21;37.96;96814.31;5027844;28;20434;-64
2021/06/01 08:36:37;;;;;;;2.80;1.70;;;;;;;18.43;36.69;96811.28;5030865;28;20186;-68
2021/06/01 08:39:05;;;;;;;2.38;1.60;;;;;;;18.46;36.25;96818.66;5030932;28;20179;-65
2021/06/01 08:41:32;;;;;;;1.60;1.50;;;;;;;18.66;37.09;96818.56;5030856;28;20647;-64
2021/06/01 08:44:00;;;;;;;2.13;1.48;;;;;;;18.77;36.88;96811.31;5030522;28;20679;-65
2021/06/01 08:46:27;;;;;;;2.78;1.58;;;;;;;18.69;36.09;96818.00;5029458;28;20410;-64
2021/06/01 08:48:53;;;;;;;2.55;1.73;;;;;;;18.56;36.33;96805.34;5031474;28;20182;-64
2021/06/01 08:51:21;;;;;;;3.47;1.80;;;;;;;18.33;36.19;96815.84;5029891;28;20563;-64
2021/06/01 08:53:48;;;;;;;1.77;1.58;;;;;;;18.20;36.14;96812.72;5013098;28;20187;-64
2021/06/01 08:56:14;;;;;;;2.45;1.70;;;;;;;18.29;35.99;96818.25;5029832;28;20324;-64
2021/06/01 08:58:41;;;;;;;1.60;1.50;;;;;;;18.30;36.93;96819.84;5030186;28;20178;-64
2021/06/01 09:01:07;;;;;;;2.05;1.50;;;;;;;18.33;36.12;96814.00;5030391;28;20213;-69
2021/06/01 09:03:34;;;;;;;1.70;1.60;;;;;;;18.22;37.14;96818.53;5030332;28;20268;-64
2021/06/01 09:22:36;;;;;;;1.77;1.50;;;;;;;18.67;34.75;96800.75;5031584;28;20182;-65
2021/06/01 09:25:09;;;;;;;4.15;1.73;;;;;;;18.85;35.02;96799.28;5034449;28;20186;-64
2021/06/01 09:27:50;;;;;;;4.40;2.20;;;;;;;18.96;35.31;96809.56;5033730;28;20218;-65
2021/06/01 09:30:40;;;;;;;1.73;1.63;;;;;;;19.12;35.62;96799.56;5032919;28;20233;-64
2021/06/01 09:33:24;;;;;;;2.55;1.63;;;;;;;19.03;34.85;96793.28;5027061;28;20227;-69
2021/06/01 09:35:52;;;;;;;1.20;1.20;;;;;;;18.99;35.03;96789.63;5033390;28;20204;-66
2021/06/01 09:38:47;;;;;;;3.00;1.73;;;;;;;18.79;35.18;96785.25;5032848;28;20281;-64
2021/06/01 09:41:16;;;;;;;1.52;1.42;;;;;;;19.03;35.10;96796.75;5019033;28;20205;-64
2021/06/01 09:44:01;;;;;;;1.58;1.48;;;;;;;19.04;35.04;96787.72;5014933;28;20202;-64
2021/06/01 09:46:34;;;;;;;1.60;1.50;;;;;;;18.93;34.01;96788.06;5030979;28;20851;-67
2021/06/01 09:49:11;;;;;;;1.17;1.17;;;;;;;19.21;34.95;96781.97;5032914;28;20185;-64
2021/06/01 09:51:38;;;;;;;1.50;1.40;;;;;;;19.20;34.69;96780.38;5032973;28;20202;-64
2021/06/01 09:54:29;;;;;;;2.00;1.40;;;;;;;19.09;33.48;96778.91;5032522;28;20640;-64
2021/06/01 09:56:56;;;;;;;2.03;1.88;;;;;;;19.37;34.67;96779.94;5032754;28;20709;-64
2021/06/01 09:59:21;;;;;;;1.90;1.30;;;;;;;19.24;36.24;96778.72;5031583;28;20178;-64
2021/06/01 10:01:46;;;;;;;1.85;1.75;;;;;;;18.99;36.67;96766.50;5033233;28;20645;-64
2021/06/01 10:04:26;;;;;;;1.73;1.63;;;;;;;19.19;34.85;96772.69;5032484;28;20201;-64
2021/06/01 10:06:52;;;;;;;1.70;1.60;;;;;;;19.32;35.24;96774.69;5033489;28;20638;-64
2021/06/01 10:09:18;;;;;;;3.78;1.50;;;;;;;19.52;34.72;96775.25;5032608;28;20644;-64
2021/06/01 10:11:56;;;;;;;1.90;1.80;;;;;;;19.70;35.03;96759.63;5015792;28;20190;-64
2021/06/01 10:14:23;;;;;;;1.70;1.60;;;;;;;19.79;35.12;96765.91;5017714;28;20187;-63
2021/06/01 10:16:50;;;;;;;1.23;1.23;;;;;;;19.40;36.14;96779.34;5032900;28;20190;-64
2021/06/01 10:19:15;;;;;;;1.75;1.65;;;;;;;19.38;35.38;96765.56;5032286;28;20421;-64
2021/06/01 10:21:43;;;;;;;1.50;1.40;;;;;;;19.09;35.00;96758.44;5033470;28;20602;-64
2021/06/01 10:24:12;;;;;;;1.58;1.48;;;;;;;19.02;35.70;96759.81;5032014;28;20194;-69
2021/06/01 10:26:38;;;;;;;1.90;1.80;;;;;;;18.76;36.38;96748.66;5033224;28;20198;-63
2021/06/01 10:29:04;;;;;;;1.70;1.60;;;;;;;19.13;35.78;96763.16;5032753;28;20210;-64
2021/06/01 10:31:29;;;;;;;1.95;1.85;;;;;;;19.27;34.53;96762.25;5031387;28;20762;-64
2021/06/01 10:34:01;;;;;;;2.13;1.70;;;;;;;19.49;35.32;96764.41;5030339;28;20257;-64
2021/06/01 10:50:39;;;;;;;1.23;1.23;;;;;;;19.62;35.77;96753.06;5032259;28;20721;-63
2021/06/01 10:53:10;;;;;;;1.83;1.73;;;;;;;19.64;34.03;96742.16;5032779;28;20182;-64
2021/06/01 10:55:51;;;;;;;2.10;1.45;;;;;;;19.69;34.33;96744.75;5032432;28;20282;-64
2021/06/01 10:58:20;;;;;;;1.50;1.40;;;;;;;19.55;33.94;96742.00;5014208;28;20186;-63
2021/06/01 11:03:13;;;;;;;1.80;1.70;;;;;;;19.56;33.69;96737.50;5031763;28;20186;-64
2021/06/01 11:05:57;;;;;;;1.73;1.63;;;;;;;19.61;35.17;96730.25;5031899;28;20605;-64
2021/06/01 11:08:34;;;;;;;5.03;1.90;;;;;;;19.50;34.72;96729.53;5031252;28;20186;-64
2021/06/01 11:11:33;;;;;;;2.55;1.48;;;;;;;19.83;34.97;96725.16;5033012;28;20182;-63
2021/06/01 11:14:01;;;;;;;1.73;1.63;;;;;;;19.93;34.77;96722.34;5031826;28;20252;-64
2021/06/01 11:16:52;;;;;;;1.95;1.83;;;;;;;19.77;34.41;96733.50;5031344;28;20293;-64
2021/06/01 11:19:19;;;;;;;2.15;1.73;;;;;;;19.76;34.68;96732.69;5025922;28;20631;-63
2021/06/01 11:21:57;;;;;;;1.80;1.70;;;;;;;19.65;33.57;96722.47;5031979;28;20542;-63
2021/06/01 11:35:32;;;;;;;1.80;1.70;;;;;;;19.93;34.80;96719.69;5029727;28;20558;-62
2021/06/01 11:38:21;;;;;;;1.80;1.65;;;;;;;19.91;34.61;96716.53;5030763;28;20178;-62
2021/06/01 11:43:19;;;;;;;1.60;1.50;;;;;;;19.93;34.82;96714.38;5029936;28;20186;-62
2021/06/01 11:45:52;;;;;;;2.00;1.90;;;;;;;19.92;34.99;96712.78;5030197;28;20186;-66
2021/06/01 11:51:11;;;;;;;1.75;1.65;;;;;;;19.77;33.68;96704.22;5013563;28;20174;-62
2021/06/01 11:54:03;;;;;;;1.73;1.58;;;;;;;20.08;34.94;96693.94;5005829;28;20717;-62
2021/06/01 12:18:59;;;;;;;1.70;1.60;;;;;;;20.65;33.64;96682.13;5030072;28;21798;-62
2021/06/01 12:21:27;;;;;;;2.10;1.80;;;;;;;20.41;33.34;96678.81;5029505;28;20183;-62
2021/06/01 12:24:08;;;;;;;2.28;2.00;;;;;;;20.48;34.51;96677.34;5012683;28;20608;-61
2021/06/01 12:32:26;;;;;;;1.67;1.58;;;;;;;20.61;34.08;96665.94;4989855;28;1113964;-66
2021/06/01 13:08:52;;;;;;;2.28;1.77;;;;;;;20.75;33.48;96641.97;5020048;28;20542;-62
2021/06/01 13:19:49;;;;;;;1.70;1.60;;;;;;;20.83;32.33;96624.53;5034496;28;20554;-61
2021/06/01 13:30:58;;;;;;;1.77;1.65;;;;;;;20.46;32.56;96620.94;5032927;28;20382;-60
2021/06/01 13:47:03;;;;;;;2.42;1.40;;;;;;;20.95;31.21;96598.97;5033856;28;20756;-61
2021/06/01 13:49:38;;;;;;;1.67;1.58;;;;;;;21.05;30.95;96597.97;5033464;28;20257;-61
2021/06/01 13:59:51;;;;;;;1.58;1.50;;;;;;;21.05;31.69;96593.44;5033650;28;20222;-61
2021/06/01 14:11:03;;;;;;;1.80;1.70;;;;;;;21.26;32.16;96601.03;5033134;28;20213;-61
2021/06/01 14:35:49;;;;;;;1.67;1.55;;;;;;;21.31;32.48;96582.25;5017395;28;20241;-62
2021/06/01 15:03:52;;;;;;;2.15;1.95;;;;;;;21.52;33.62;96562.03;5019435;28;20185;-62
2021/06/01 15:07:24;;;;;;;1.80;1.70;;;;;;;21.19;33.24;96556.13;5016551;28;20205;-66
2021/06/01 15:11:17;;;;;;;3.00;2.40;;;;;;;21.30;33.60;96543.34;5032620;28;20190;-61
2021/06/01 15:30:52;;;;;;;1.90;1.80;;;;;;;21.55;33.01;96534.78;5025578;28;20324;-61
2021/06/01 15:49:43;;;;;;;1.48;1.38;;;;;;;21.34;33.02;96523.81;5030619;28;20185;-62
2021/06/01 17:05:44;;;;;;;2.53;1.50;;;;;;;21.23;31.77;96485.13;5029887;28;20240;-62
2021/06/01 17:13:53;;;;;;;1.73;1.63;;;;;;;21.17;32.11;96485.53;5029628;28;20273;-63
2021/06/01 17:35:06;;;;;;;1.30;1.30;;;;;;;20.92;31.97;96482.31;5015362;28;20554;-62
2021/06/01 17:37:32;;;;;;;1.67;1.40;;;;;;;20.95;32.03;96481.72;5029329;28;20198;-61
2021/06/01 17:39:59;;;;;;;1.58;1.40;;;;;;;20.90;32.45;96481.81;5030095;28;20186;-61
2021/06/01 17:42:29;;;;;;;1.45;1.40;;;;;;;20.89;32.24;96480.25;5029499;28;20290;-61
2021/06/01 17:44:58;;;;;;;3.05;1.77;;;;;;;20.83;32.57;96478.78;5033950;28;20531;-61
2021/06/01 17:47:25;;;;;;;1.48;1.38;;;;;;;20.78;33.04;96478.91;5033041;28;21813;-63
2021/06/01 17:49:52;;;;;;;1.85;1.50;;;;;;;20.83;32.97;96480.66;5034292;28;20194;-63
2021/06/01 17:52:28;;;;;;;1.88;1.75;;;;;;;20.73;33.06;96482.44;5032914;28;20186;-63
2021/06/01 17:54:55;;;;;;;1.75;1.65;;;;;;;20.68;33.06;96473.75;5021323;28;20244;-61
2021/06/01 17:57:22;;;;;;;1.75;1.65;;;;;;;20.70;33.10;96472.41;5031991;28;20198;-63
2021/06/01 17:59:49;;;;;;;1.58;1.48;;;;;;;20.68;33.27;96477.22;5033324;28;20209;-62
2021/06/01 18:02:17;;;;;;;1.42;1.33;;;;;;;20.69;33.24;96470.03;5033358;28;20182;-65
2021/06/01 18:04:45;;;;;;;1.65;1.55;;;;;;;20.67;32.90;96478.31;5033507;28;20190;-62
2021/06/01 18:07:17;;;;;;;2.55;1.50;;;;;;;20.72;32.68;96472.09;5033486;28;20297;-62
2021/06/01 19:50:59;;;;;;;1.80;1.70;;;;;;;18.44;39.80;96510.28;5031920;28;20213;-62